Terminal Aerodrome Forecast
Issued by NWS

Home | Current Version | Previous Version | Text Only | Print | Product List | Glossary On
Versions: 1 2 3 4 5 6 7 8 9 10 11 12 13 14 15 16 17 18 19 20 21 22 23 24 25 26 27 28 29 30 31 32 33 34 35 36 37 38
000
FTUS43 KLOT 270531
TAFDPA
TAF
KDPA 270531Z 2706/2806 35010KT P6SM VCSH OVC035
      TEMPO 2707/2710 5SM -SN OVC030
     FM271200 35011KT P6SM OVC040
     FM271500 35013G18KT P6SM BKN050
     FM272300 03010KT P6SM FEW050=

USA.gov is the U.S. government's official web portal to all federal, state and local government web resources and services.